createdAt,value
2018-12-06T00:00:52.825Z,20.23
2018-12-06T00:03:21.344Z,16.60
2018-12-06T00:05:49.843Z,13.63
2018-12-06T00:08:19.511Z,13.17
2018-12-06T00:10:48.023Z,16.43
2018-12-06T00:13:16.554Z,16.03
2018-12-06T00:15:45.033Z,15.70
2018-12-06T00:18:13.536Z,20.53
2018-12-06T00:20:42.040Z,16.33
2018-12-06T00:23:10.568Z,14.77
2018-12-06T00:25:39.073Z,17.97
2018-12-06T00:28:07.573Z,14.10
2018-12-06T00:31:04.845Z,16.47
2018-12-06T00:33:33.372Z,14.40
2018-12-06T00:36:01.881Z,21.57
2018-12-06T00:38:30.528Z,11.53
2018-12-06T00:40:59.010Z,15.00
2018-12-06T00:43:27.522Z,13.90
2018-12-06T00:45:55.999Z,13.13
2018-12-06T00:48:24.522Z,11.70
2018-12-06T00:50:53.075Z,13.97
2018-12-06T00:53:21.678Z,19.33
2018-12-06T00:55:50.232Z,14.17
2018-12-06T00:58:18.734Z,13.57
2018-12-06T01:00:47.264Z,11.40
2018-12-06T01:03:15.765Z,15.30
2018-12-06T01:05:44.253Z,16.13
2018-12-06T01:08:12.949Z,16.10
2018-12-06T01:10:41.495Z,16.20
2018-12-06T01:13:10.024Z,12.80
2018-12-06T01:15:38.503Z,13.30
2018-12-06T01:18:07.009Z,12.23
2018-12-06T01:20:35.501Z,15.87
2018-12-06T01:23:04.026Z,12.83
2018-12-06T01:25:32.533Z,16.23
2018-12-06T01:28:01.045Z,15.30
2018-12-06T01:30:30.170Z,14.83
2018-12-06T01:32:58.812Z,15.60
2018-12-06T01:35:27.305Z,13.17
2018-12-06T01:37:55.825Z,12.33
2018-12-06T01:40:24.421Z,13.27
2018-12-06T01:42:52.934Z,14.40
2018-12-06T01:45:21.442Z,13.90
2018-12-06T01:47:49.919Z,15.07
2018-12-06T01:50:18.429Z,14.10
2018-12-06T01:52:46.908Z,15.63
2018-12-06T01:55:15.432Z,16.93
2018-12-06T01:57:43.923Z,15.50
2018-12-06T02:00:12.476Z,17.40
2018-12-06T02:02:40.960Z,14.27
2018-12-06T02:05:09.477Z,13.00
2018-12-06T02:07:38.085Z,13.60
2018-12-06T02:10:07.134Z,14.83
2018-12-06T02:12:36.196Z,13.00
2018-12-06T02:15:05.576Z,14.97
2018-12-06T02:17:34.138Z,10.07
2018-12-06T02:20:02.711Z,14.10
2018-12-06T02:22:31.206Z,15.60
2018-12-06T02:24:59.718Z,17.00
2018-12-06T02:27:28.209Z,13.20
2018-12-06T02:29:56.733Z,10.43
2018-12-06T02:32:25.241Z,18.43
2018-12-06T02:34:53.745Z,12.27
2018-12-06T02:37:22.227Z,15.70
2018-12-06T02:39:50.747Z,11.90
2018-12-06T02:42:19.228Z,15.20
2018-12-06T02:44:47.765Z,14.90
2018-12-06T02:47:16.253Z,14.60
2018-12-06T02:49:44.897Z,18.70
2018-12-06T02:52:14.397Z,13.60
2018-12-06T02:54:42.928Z,13.93
2018-12-06T02:57:11.536Z,16.87
2018-12-06T02:59:40.045Z,12.53
2018-12-06T03:02:08.557Z,14.13
2018-12-06T03:04:37.312Z,14.87
2018-12-06T03:07:05.938Z,11.83
2018-12-06T03:09:34.517Z,14.80
2018-12-06T03:12:03.010Z,15.80
2018-12-06T03:14:31.497Z,15.30
2018-12-06T03:17:00.068Z,15.37
2018-12-06T03:19:28.574Z,14.13
2018-12-06T03:21:57.176Z,12.20
2018-12-06T03:24:25.688Z,14.73
2018-12-06T03:26:54.206Z,16.50
2018-12-06T03:29:23.602Z,14.27
2018-12-06T03:31:52.123Z,11.37
2018-12-06T03:34:20.829Z,13.70
2018-12-06T03:36:49.321Z,12.73
2018-12-06T03:39:17.809Z,14.40
2018-12-06T03:41:46.315Z,13.83
2018-12-06T03:44:14.798Z,14.67
2018-12-06T03:46:43.295Z,12.70
2018-12-06T03:49:11.775Z,12.73
2018-12-06T03:51:40.435Z,10.57
2018-12-06T03:54:09.011Z,11.43
2018-12-06T03:56:37.529Z,13.10
2018-12-06T03:59:06.101Z,11.97
2018-12-06T04:01:34.605Z,9.17
2018-12-06T04:04:03.088Z,11.70
2018-12-06T04:06:31.589Z,10.70
2018-12-06T04:09:00.085Z,10.07
2018-12-06T04:11:29.234Z,9.33
2018-12-06T04:13:57.721Z,11.37
2018-12-06T04:16:26.220Z,10.60
2018-12-06T04:18:54.916Z,9.77
2018-12-06T04:21:23.461Z,8.70
2018-12-06T04:23:51.948Z,12.27
2018-12-06T04:26:20.492Z,8.43
2018-12-06T04:28:49.566Z,10.47
2018-12-06T04:31:18.177Z,8.57
2018-12-06T04:33:46.722Z,9.07
2018-12-06T04:36:15.230Z,8.90
2018-12-06T04:38:43.709Z,8.63
2018-12-06T04:41:12.241Z,7.70
2018-12-06T04:43:40.752Z,8.90
2018-12-06T04:46:09.264Z,9.37
2018-12-06T04:48:37.737Z,12.83
2018-12-06T04:51:06.335Z,9.93
2018-12-06T04:53:34.820Z,10.67
2018-12-06T04:56:03.306Z,8.87
2018-12-06T04:58:31.836Z,8.60
2018-12-06T05:01:00.365Z,10.40
2018-12-06T05:03:28.984Z,14.17
2018-12-06T05:05:57.470Z,10.43
2018-12-06T05:08:25.964Z,9.03
2018-12-06T05:10:54.470Z,8.13
2018-12-06T05:13:22.981Z,8.40
2018-12-06T05:15:51.493Z,10.20
2018-12-06T05:18:20.277Z,9.97
2018-12-06T05:20:48.761Z,12.33
2018-12-06T05:23:17.355Z,8.67
2018-12-06T05:25:45.833Z,10.57
2018-12-06T05:28:14.347Z,8.10
2018-12-06T05:30:42.827Z,9.07
2018-12-06T05:33:11.340Z,10.47
2018-12-06T05:35:39.808Z,8.53
2018-12-06T05:38:08.314Z,9.53
2018-12-06T05:40:36.863Z,12.20
2018-12-06T05:43:05.926Z,13.77
2018-12-06T05:45:34.408Z,11.73
2018-12-06T05:48:02.909Z,14.20
2018-12-06T05:50:31.469Z,14.10
2018-12-06T05:52:59.971Z,18.17
2018-12-06T05:55:28.448Z,16.77
2018-12-06T05:57:56.917Z,12.50
2018-12-06T06:00:25.332Z,17.33
2018-12-06T06:02:53.810Z,8.93
2018-12-06T06:05:23.363Z,12.33
2018-12-06T06:07:53.797Z,16.90
2018-12-06T06:10:25.872Z,10.20
2018-12-06T06:12:57.348Z,11.07
2018-12-06T06:15:29.710Z,9.83
2018-12-06T06:18:01.004Z,15.70
2018-12-06T06:20:32.541Z,11.17
2018-12-06T06:23:03.309Z,14.37
2018-12-06T06:25:31.882Z,13.33
2018-12-06T06:28:00.410Z,12.53
2018-12-06T06:30:29.126Z,11.43
2018-12-06T06:32:57.661Z,13.40
2018-12-06T06:35:27.430Z,17.43
2018-12-06T06:37:55.960Z,16.07
2018-12-06T06:40:24.447Z,14.20
2018-12-06T06:42:52.949Z,13.50
2018-12-06T06:45:22.257Z,9.33
2018-12-06T06:47:50.766Z,12.07
2018-12-06T06:50:19.246Z,9.80
2018-12-06T06:52:47.766Z,10.97
2018-12-06T06:55:16.259Z,10.90
2018-12-06T06:57:44.786Z,8.70
2018-12-06T07:00:13.434Z,10.87
2018-12-06T07:02:42.001Z,10.13
2018-12-06T07:05:10.487Z,13.33
2018-12-06T07:07:39.242Z,10.33
2018-12-06T07:10:08.630Z,10.93
2018-12-06T07:12:38.143Z,9.43
2018-12-06T07:15:07.545Z,11.83
2018-12-06T07:17:36.162Z,19.47
2018-12-06T07:20:05.509Z,9.33
2018-12-06T07:22:34.051Z,10.50
2018-12-06T07:25:02.540Z,10.70
2018-12-06T07:27:31.045Z,10.03
2018-12-06T07:29:59.592Z,12.87
2018-12-06T07:32:28.084Z,9.90
2018-12-06T07:34:56.571Z,11.83
2018-12-06T07:37:25.083Z,11.70
2018-12-06T07:39:53.590Z,14.47
2018-12-06T07:42:22.104Z,9.60
2018-12-06T07:44:50.578Z,12.60
2018-12-06T07:47:19.715Z,11.90
2018-12-06T07:49:48.332Z,13.07
2018-12-06T07:52:16.834Z,10.97
2018-12-06T07:54:45.336Z,17.10
2018-12-06T07:57:13.860Z,12.23
2018-12-06T07:59:42.365Z,12.63
2018-12-06T08:02:10.871Z,12.47
2018-12-06T08:04:39.501Z,16.03
2018-12-06T08:07:08.062Z,10.90
2018-12-06T08:09:36.604Z,11.70
2018-12-06T08:12:05.103Z,14.40
2018-12-06T08:14:33.730Z,22.27
2018-12-06T08:17:02.227Z,43.10
2018-12-06T08:19:30.761Z,48.80
2018-12-06T08:21:59.449Z,43.27
2018-12-06T08:24:27.971Z,36.57
2018-12-06T08:26:56.556Z,37.67
2018-12-06T08:29:25.119Z,29.77
2018-12-06T08:31:53.613Z,27.20
2018-12-06T08:34:22.153Z,26.57
2018-12-06T08:36:51.263Z,21.13
2018-12-06T08:39:19.771Z,22.30
2018-12-06T08:41:48.262Z,21.13
2018-12-06T08:44:21.320Z,24.30
2018-12-06T08:46:48.463Z,29.70
2018-12-06T08:49:17.152Z,34.30
2018-12-06T08:51:45.742Z,37.83
2018-12-06T08:54:14.780Z,28.73
2018-12-06T08:56:43.761Z,32.90
2018-12-06T08:59:12.284Z,27.97
2018-12-06T09:01:40.788Z,34.40
2018-12-06T09:04:09.325Z,29.10
2018-12-06T09:06:37.812Z,33.63
2018-12-06T09:09:07.809Z,38.33
2018-12-06T09:11:36.324Z,27.53
2018-12-06T09:14:05.363Z,35.47
2018-12-06T09:16:33.855Z,34.93
2018-12-06T09:19:02.531Z,27.77
2018-12-06T09:21:31.015Z,25.50
2018-12-06T09:23:59.600Z,24.23
2018-12-06T09:26:28.185Z,26.63
2018-12-06T09:28:56.683Z,30.93
2018-12-06T09:31:25.162Z,23.10
2018-12-06T09:34:05.556Z,28.60
2018-12-06T09:36:34.520Z,27.70
2018-12-06T09:39:04.012Z,28.53
2018-12-06T09:41:32.678Z,36.40
2018-12-06T09:44:01.301Z,31.57
2018-12-06T09:46:33.841Z,23.97
2018-12-06T09:49:03.784Z,23.70
2018-12-06T09:51:32.615Z,24.83
2018-12-06T09:54:01.880Z,21.83
2018-12-06T09:56:30.533Z,25.03
2018-12-06T09:58:59.025Z,21.30
2018-12-06T10:01:27.580Z,31.37
2018-12-06T10:03:56.408Z,31.17
2018-12-06T10:06:24.927Z,22.10
2018-12-06T10:08:53.414Z,23.60
2018-12-06T10:11:21.942Z,26.53
2018-12-06T10:13:50.460Z,22.77
2018-12-06T10:16:19.236Z,19.73
2018-12-06T10:18:47.723Z,15.50
2018-12-06T10:21:16.263Z,22.07
2018-12-06T10:23:44.743Z,21.83
2018-12-06T10:26:13.254Z,11.10
2018-12-06T10:28:41.889Z,18.63
2018-12-06T10:31:10.734Z,20.53
2018-12-06T10:33:39.281Z,15.90
2018-12-06T10:36:07.905Z,15.20
2018-12-06T10:38:36.487Z,10.60
2018-12-06T10:41:05.036Z,9.47
2018-12-06T10:43:33.514Z,14.33
2018-12-06T10:46:02.156Z,13.20
2018-12-06T10:48:30.644Z,14.23
2018-12-06T10:51:10.492Z,13.80
2018-12-06T10:53:38.997Z,15.13
2018-12-06T10:56:07.515Z,20.27
2018-12-06T10:58:36.097Z,13.37
2018-12-06T11:01:09.329Z,11.83
2018-12-06T11:03:43.133Z,20.83
2018-12-06T11:06:11.656Z,14.70
2018-12-06T11:08:40.132Z,21.50
2018-12-06T11:11:08.782Z,21.60
2018-12-06T11:13:37.269Z,11.90
2018-12-06T11:16:05.771Z,13.77
2018-12-06T11:18:34.402Z,19.23
2018-12-06T11:21:03.056Z,14.53
2018-12-06T11:23:31.537Z,19.67
2018-12-06T11:26:00.048Z,21.43
2018-12-06T11:28:28.689Z,16.60
2018-12-06T11:30:57.209Z,13.33
2018-12-06T11:33:25.714Z,15.47
2018-12-06T11:35:54.312Z,20.33
2018-12-06T11:38:22.800Z,13.47
2018-12-06T11:40:51.316Z,17.47
2018-12-06T11:43:19.875Z,14.60
2018-12-06T11:45:48.423Z,14.13
2018-12-06T11:48:16.897Z,9.13
2018-12-06T11:50:45.397Z,14.17
2018-12-06T11:53:13.936Z,19.67
2018-12-06T11:55:42.525Z,20.90
2018-12-06T11:58:11.609Z,20.47
2018-12-06T12:00:40.287Z,14.37
2018-12-06T12:03:09.018Z,12.30
2018-12-06T12:05:37.497Z,15.13
2018-12-06T12:08:05.986Z,16.40
2018-12-06T12:10:34.524Z,18.97
2018-12-06T12:13:03.050Z,13.83
2018-12-06T12:15:31.609Z,15.30
2018-12-06T12:18:00.177Z,17.20
2018-12-06T12:20:28.669Z,15.23
2018-12-06T12:22:57.260Z,17.23
2018-12-06T12:25:25.805Z,18.27
2018-12-06T12:27:54.458Z,18.30
2018-12-06T12:30:23.043Z,9.33
2018-12-06T12:32:51.706Z,12.10
2018-12-06T12:35:20.599Z,14.93
2018-12-06T12:37:49.096Z,9.50
2018-12-06T12:40:18.076Z,9.60
2018-12-06T12:42:46.576Z,8.00
2018-12-06T12:45:15.065Z,7.17
2018-12-06T12:47:43.565Z,9.67
2018-12-06T12:50:12.116Z,11.80
2018-12-06T12:52:41.246Z,6.47
2018-12-06T12:55:09.857Z,5.73
2018-12-06T12:57:38.360Z,6.80
2018-12-06T13:00:07.731Z,10.97
2018-12-06T13:02:36.254Z,8.70
2018-12-06T13:05:05.417Z,5.80
2018-12-06T13:07:33.928Z,5.63
2018-12-06T13:10:02.416Z,5.23
2018-12-06T13:12:30.940Z,7.60
2018-12-06T13:14:59.425Z,6.13
2018-12-06T13:17:27.949Z,7.63
2018-12-06T13:19:56.557Z,12.73
2018-12-06T13:22:25.069Z,5.07
2018-12-06T13:24:53.733Z,5.63
2018-12-06T13:27:22.264Z,4.50
2018-12-06T13:29:51.565Z,7.50
2018-12-06T13:32:20.849Z,8.10
2018-12-06T13:34:51.091Z,4.20
2018-12-06T13:37:19.774Z,5.20
2018-12-06T13:39:48.259Z,5.07
2018-12-06T13:42:23.332Z,4.60
2018-12-06T13:44:47.489Z,5.90
2018-12-06T13:47:16.125Z,4.83
2018-12-06T13:49:44.601Z,9.67
2018-12-06T13:52:13.112Z,6.30
2018-12-06T13:54:41.604Z,6.10
2018-12-06T13:57:10.120Z,5.83
2018-12-06T13:59:38.629Z,5.30
2018-12-06T14:02:07.148Z,3.57
2018-12-06T14:04:35.704Z,6.00
2018-12-06T14:07:04.220Z,3.17
2018-12-06T14:09:32.707Z,4.77
2018-12-06T14:12:01.221Z,4.10
2018-12-06T14:14:29.698Z,8.30
2018-12-06T14:16:58.268Z,4.97
2018-12-06T14:19:26.753Z,12.93
2018-12-06T14:21:55.304Z,8.60
2018-12-06T14:24:23.836Z,4.10
2018-12-06T14:26:52.323Z,3.80
2018-12-06T14:29:20.837Z,3.00
2018-12-06T14:31:49.328Z,3.50
2018-12-06T14:34:17.863Z,3.40
2018-12-06T14:36:46.383Z,3.00
2018-12-06T14:39:15.041Z,3.07
2018-12-06T14:41:43.699Z,4.00
2018-12-06T14:44:12.229Z,3.70
2018-12-06T14:46:40.783Z,4.37
2018-12-06T14:49:09.335Z,3.40
2018-12-06T14:51:37.816Z,3.70
2018-12-06T14:54:06.328Z,3.83
2018-12-06T14:56:34.809Z,4.10
2018-12-06T14:59:03.350Z,5.60
2018-12-06T15:01:31.823Z,7.70
2018-12-06T15:04:01.925Z,4.10
2018-12-06T15:06:37.332Z,4.87
2018-12-06T15:09:01.745Z,4.30
2018-12-06T15:11:30.226Z,3.47
2018-12-06T15:13:58.795Z,4.07
2018-12-06T15:16:27.477Z,4.83
2018-12-06T15:18:56.309Z,3.50
2018-12-06T15:21:24.838Z,4.40
2018-12-06T15:23:53.358Z,4.00
2018-12-06T15:26:21.916Z,3.50
2018-12-06T15:28:50.413Z,5.70
2018-12-06T15:31:18.898Z,3.67
2018-12-06T15:33:47.452Z,4.30
2018-12-06T15:36:16.449Z,4.00
2018-12-06T15:38:45.639Z,3.30
2018-12-06T15:41:14.141Z,3.67
2018-12-06T15:43:42.645Z,4.50
2018-12-06T15:46:11.258Z,2.87
2018-12-06T15:48:39.760Z,4.77
2018-12-06T15:51:08.234Z,2.87
2018-12-06T15:53:36.724Z,5.43
2018-12-06T15:56:05.944Z,3.63
2018-12-06T15:58:34.456Z,4.03
2018-12-06T16:01:02.945Z,6.33
2018-12-06T16:03:31.656Z,3.17
2018-12-06T16:06:00.139Z,3.53
2018-12-06T16:08:28.660Z,3.73
2018-12-06T16:10:57.130Z,4.83
2018-12-06T16:13:25.646Z,8.43
2018-12-06T16:15:54.157Z,3.63
2018-12-06T16:18:22.644Z,3.20
2018-12-06T16:20:51.121Z,3.13
2018-12-06T16:23:19.616Z,5.73
2018-12-06T16:25:48.113Z,3.40
2018-12-06T16:28:17.418Z,10.00
2018-12-06T16:30:45.904Z,3.23
2018-12-06T16:33:13.673Z,3.70
2018-12-06T16:35:42.164Z,3.20
2018-12-06T16:38:10.738Z,2.90
2018-12-06T16:40:39.329Z,3.87
2018-12-06T16:43:07.805Z,3.27
2018-12-06T16:45:36.348Z,3.90
2018-12-06T16:48:04.861Z,5.63
2018-12-06T16:50:33.369Z,3.93
2018-12-06T16:53:01.865Z,3.40
2018-12-06T16:55:30.517Z,3.60
2018-12-06T16:57:59.045Z,5.47
2018-12-06T17:00:27.546Z,4.00
2018-12-06T17:02:56.010Z,9.03
2018-12-06T17:05:24.532Z,3.53
2018-12-06T17:07:53.038Z,3.13
2018-12-06T17:10:21.587Z,3.80
2018-12-06T17:12:50.160Z,2.70
2018-12-06T17:15:18.780Z,2.60
2018-12-06T17:17:47.315Z,4.20
2018-12-06T17:20:15.805Z,3.33
2018-12-06T17:22:44.303Z,2.70
2018-12-06T17:25:13.688Z,3.67
2018-12-06T17:27:42.174Z,4.10
2018-12-06T17:30:10.965Z,2.43
2018-12-06T17:32:39.500Z,2.60
2018-12-06T17:35:08.052Z,4.47
2018-12-06T17:37:36.647Z,3.10
2018-12-06T17:40:05.795Z,4.53
2018-12-06T17:42:34.277Z,4.60
2018-12-06T17:45:02.794Z,6.07
2018-12-06T17:47:31.276Z,2.43
2018-12-06T17:49:59.786Z,4.97
2018-12-06T17:52:28.289Z,3.00
2018-12-06T17:54:56.872Z,5.70
2018-12-06T17:57:25.584Z,2.77
2018-12-06T17:59:54.083Z,3.20
2018-12-06T18:02:22.599Z,3.40
2018-12-06T18:04:51.105Z,3.90
2018-12-06T18:07:19.585Z,3.03
2018-12-06T18:09:48.108Z,2.83
2018-12-06T18:12:16.730Z,2.13
2018-12-06T18:14:45.284Z,2.93
2018-12-06T18:17:14.307Z,2.90
2018-12-06T18:19:42.841Z,2.73
2018-12-06T18:22:11.335Z,4.20
2018-12-06T18:24:39.941Z,2.50
2018-12-06T18:27:08.423Z,3.03
2018-12-06T18:29:37.036Z,3.23
2018-12-06T18:32:06.047Z,6.47
2018-12-06T18:34:34.569Z,3.50
2018-12-06T18:37:03.090Z,3.33
2018-12-06T18:39:31.631Z,3.70
2018-12-06T18:42:00.113Z,2.70
2018-12-06T18:44:28.659Z,2.87
2018-12-06T18:46:57.225Z,3.23
2018-12-06T18:49:25.799Z,3.70
2018-12-06T18:51:54.313Z,4.63
2018-12-06T18:54:22.791Z,5.00
2018-12-06T18:56:51.307Z,3.27
2018-12-06T18:59:20.377Z,2.50
2018-12-06T19:01:49.042Z,4.47
2018-12-06T19:04:17.749Z,3.33
2018-12-06T19:06:46.353Z,3.27
2018-12-06T19:09:14.853Z,3.40
2018-12-06T19:11:43.356Z,4.07
2018-12-06T19:14:11.927Z,3.10
2018-12-06T19:16:40.461Z,3.10
2018-12-06T19:19:08.959Z,3.20
2018-12-06T19:21:37.476Z,2.83
2018-12-06T19:24:06.105Z,4.90
2018-12-06T19:26:34.702Z,2.90
2018-12-06T19:29:03.224Z,2.70
2018-12-06T19:31:31.729Z,3.70
2018-12-06T19:34:00.210Z,3.50
2018-12-06T19:36:28.806Z,3.63
2018-12-06T19:38:57.482Z,2.60
2018-12-06T19:41:25.982Z,2.67
2018-12-06T19:43:54.480Z,8.17
2018-12-06T19:46:23.013Z,3.27
2018-12-06T19:48:51.516Z,3.17
2018-12-06T19:51:20.046Z,3.50
2018-12-06T19:53:48.559Z,4.23
2018-12-06T19:56:17.075Z,4.87
2018-12-06T19:58:45.560Z,3.20
2018-12-06T20:01:14.088Z,3.77
2018-12-06T20:03:42.572Z,3.20
2018-12-06T20:06:11.102Z,3.20
2018-12-06T20:08:39.658Z,4.20
2018-12-06T20:11:08.220Z,4.77
2018-12-06T20:13:36.699Z,5.40
2018-12-06T20:16:05.216Z,5.30
2018-12-06T20:18:34.294Z,5.27
2018-12-06T20:21:02.818Z,3.50
2018-12-06T20:23:31.305Z,3.80
2018-12-06T20:25:59.905Z,4.07
2018-12-06T20:28:28.771Z,5.43
2018-12-06T20:30:57.460Z,4.60
2018-12-06T20:33:26.014Z,5.80
2018-12-06T20:35:54.516Z,3.17
2018-12-06T20:38:23.153Z,4.50
2018-12-06T20:40:51.862Z,3.17
2018-12-06T20:43:20.758Z,4.37
2018-12-06T20:45:49.261Z,4.90
2018-12-06T20:48:17.754Z,5.67
2018-12-06T20:50:49.322Z,3.77
2018-12-06T20:53:17.180Z,3.17
2018-12-06T20:55:45.898Z,3.07
2018-12-06T20:58:15.156Z,3.40
2018-12-06T21:00:44.007Z,3.93
2018-12-06T21:03:12.652Z,2.93
2018-12-06T21:05:41.914Z,3.17
2018-12-06T21:08:10.476Z,3.50
2018-12-06T21:10:39.022Z,2.50
2018-12-06T21:13:07.530Z,4.43
2018-12-06T21:15:36.042Z,3.17
2018-12-06T21:18:05.883Z,3.00
2018-12-06T21:20:34.421Z,2.60
2018-12-06T21:23:02.924Z,4.57
2018-12-06T21:25:31.485Z,3.67
2018-12-06T21:28:00.738Z,2.50
2018-12-06T21:30:29.520Z,3.10
2018-12-06T21:32:58.080Z,4.10
2018-12-06T21:35:26.565Z,4.03
2018-12-06T21:37:55.204Z,2.90
2018-12-06T21:40:24.126Z,3.30
2018-12-06T21:42:52.625Z,3.07
2018-12-06T21:45:21.173Z,3.60
2018-12-06T21:47:49.749Z,4.07
2018-12-06T21:50:18.241Z,6.23
2018-12-06T21:52:46.748Z,2.70
2018-12-06T21:55:15.333Z,3.77
2018-12-06T21:57:44.375Z,2.20
2018-12-06T22:00:13.751Z,2.87
2018-12-06T22:02:42.267Z,5.70
2018-12-06T22:05:10.762Z,4.50
2018-12-06T22:07:39.262Z,2.87
2018-12-06T22:10:08.712Z,2.80
2018-12-06T22:12:37.227Z,2.87
2018-12-06T22:15:06.171Z,2.63
2018-12-06T22:17:34.697Z,3.20
2018-12-06T22:20:03.205Z,10.50
2018-12-06T22:22:31.712Z,2.13
2018-12-06T22:25:00.207Z,2.67
2018-12-06T22:27:28.830Z,2.77
2018-12-06T22:29:57.379Z,3.10
2018-12-06T22:32:25.897Z,2.20
2018-12-06T22:34:54.386Z,2.37
2018-12-06T22:37:22.885Z,4.40
2018-12-06T22:39:51.379Z,2.60
2018-12-06T22:42:19.916Z,3.60
2018-12-06T22:44:48.413Z,3.20
2018-12-06T22:47:18.967Z,2.17
2018-12-06T22:49:47.453Z,3.20
2018-12-06T22:52:15.977Z,2.03
2018-12-06T22:54:44.462Z,2.20
2018-12-06T22:57:13.014Z,4.30
2018-12-06T22:59:41.536Z,4.13
2018-12-06T23:02:10.039Z,2.37
2018-12-06T23:04:38.517Z,2.73
2018-12-06T23:07:07.034Z,4.90
2018-12-06T23:09:35.547Z,2.70
2018-12-06T23:12:04.060Z,2.07
2018-12-06T23:14:33.158Z,2.70
2018-12-06T23:17:01.705Z,2.17
2018-12-06T23:19:30.192Z,2.00
2018-12-06T23:21:58.684Z,2.53
2018-12-06T23:24:27.189Z,1.70
2018-12-06T23:26:55.665Z,2.27
2018-12-06T23:29:24.168Z,2.50
2018-12-06T23:31:52.644Z,2.70
2018-12-06T23:34:21.147Z,2.70
2018-12-06T23:36:49.625Z,1.90
2018-12-06T23:39:18.138Z,1.80
2018-12-06T23:41:46.614Z,2.50
2018-12-06T23:44:15.141Z,1.70
2018-12-06T23:46:43.641Z,2.03
2018-12-06T23:49:12.166Z,2.70
2018-12-06T23:51:40.800Z,5.30
2018-12-06T23:54:09.321Z,3.20
2018-12-06T23:56:37.799Z,2.33
2018-12-06T23:59:06.794Z,3.03
